Flight Track Log - Related Links

Times and Time Zones

All times are in EDT time to prevent confusion due to time zone crossing. See the UCA4838 flight status page for this flight to view local times or setup timezone preferences in your user account.

Time Position Orientation Groundspeed Altitude Reporting Facility
EDT Latitude Longitude Course Direction KTS MPH feet Rate Location/Type
Mon 06:15:25 AM 43.1014 -77.6914 203° Southwest 110 127 1,300  Level Cleveland Center
Mon 06:16:01 AM 43.0808 -77.7036 203° Southwest 132 152 1,900 1,175 Climbing Cleveland Center
Mon 06:17:02 AM 43.0375 -77.7142 190° South 182 209 3,200 1,258 Climbing Cleveland Center
Mon 06:18:05 AM 43.0172 -77.6556 115° Southeast 184 212 4,500 1,463 Climbing Cleveland Center
Mon 06:19:05 AM 42.9989 -77.5911 111° Southeast 176 203 6,200 1,400 Climbing Cleveland Center
Mon 06:20:05 AM 42.9825 -77.5267 109° East 190 219 7,300 1,200 Climbing Cleveland Center
Mon 06:21:05 AM 42.9600 -77.4625 116° Southeast 190 219 8,600 850 Climbing Cleveland Center
Mon 06:22:05 AM 42.9392 -77.3897 111° Southeast 190 219 9,000 700 Climbing Cleveland Center
Mon 06:23:05 AM 42.9161 -77.3114 112° Southeast 210 242 10,000 650 Climbing Cleveland Center
Mon 06:24:05 AM 42.8908 -77.2250 112° Southeast 223 257 10,300 857 Climbing Cleveland Center
Mon 06:26:00 AM 42.8456 -77.0639 111° Southeast 231 266 12,500 926 Climbing New York Center
Mon 06:27:00 AM 42.8206 -76.9822 113° Southeast 231 266 13,000 250 Climbing New York Center
Mon 06:28:00 AM 42.7831 -76.9025 123° Southeast 231 266 13,000  Level New York Center
Mon 06:29:00 AM 42.7439 -76.8142 121° Southeast 247 284 13,000  Level New York Center
Mon 06:30:00 AM 42.7047 -76.7231 120° Southeast 269 310 13,000  Level New York Center
Mon 06:31:00 AM 42.6656 -76.6347 121° Southeast 275 316 13,000  Level New York Center
Mon 06:32:00 AM 42.6261 -76.5467 121° Southeast 275 316 13,000  Level New York Center
Mon 06:33:00 AM 42.5867 -76.4589 121° Southeast 275 316 13,000  Level New York Center
Mon 06:34:00 AM 42.5450 -76.3678 122° Southeast 275 316 13,000  Level New York Center
Mon 06:35:25 AM 42.4889 -76.2444 122° Southeast 273 314 13,000  Level Boston Center
Mon 06:36:25 AM 42.4500 -76.1547 120° Southeast 279 321 13,000  Level Boston Center
Mon 06:37:26 AM 42.4053 -76.0592 122° Southeast 288 331 13,000  Level Boston Center
Mon 06:38:27 AM 42.3681 -75.9783 122° Southeast 278 320 13,000  Level Boston Center
Mon 06:39:27 AM 42.3253 -75.8833 121° Southeast 283 326 13,000  Level Boston Center
Mon 06:40:28 AM 42.2842 -75.7939 122° Southeast 283 326 13,000  Level Boston Center
Mon 06:41:25 AM 42.2431 -75.7047 122° Southeast 283 326 13,000  Level Boston Center
Mon 06:42:25 AM 42.2039 -75.6158 121° Southeast 283 326 13,000  Level Boston Center
Mon 06:43:26 AM 42.1606 -75.5239 122° Southeast 283 326 13,000  Level Boston Center
Mon 06:44:27 AM 42.1192 -75.4350 122° Southeast 283 326 13,000  Level Boston Center
Mon 06:45:27 AM 42.0775 -75.3464 122° Southeast 283 326 13,000  Level Boston Center
Mon 06:46:27 AM 42.0403 -75.2581 120° Southeast 283 326 13,000  Level Boston Center
Mon 06:47:25 AM 42.0069 -75.1644 116° Southeast 283 326 13,000  Level Boston Center
Mon 06:48:27 AM 41.9697 -75.0678 117° Southeast 278 320 13,000  Level Boston Center
Mon 06:49:27 AM 41.9322 -74.9769 119° Southeast 278 320 13,000 -356 Level Boston Center
Mon 06:50:25 AM 41.8969 -74.8806 116° Southeast 278 320 12,300 -908 Descending Boston Center
Mon 06:51:26 AM 41.8719 -74.7708 107° East 294 338 11,200 -694 Descending Boston Center
Mon 06:52:26 AM 41.8556 -74.6644 102° East 299 344 10,900 -600 Descending Boston Center
Mon 06:53:26 AM 41.8089 -74.5847 128° Southeast 293 337 10,000 -942 Descending Boston Center
Mon 06:54:27 AM 41.7322 -74.5683 171° South 278 320 9,000 -1,059 Descending Boston Center
Mon 06:55:25 AM 41.6553 -74.5572 174° South 278 320 7,900 -1,000 Descending Boston Center
Mon 06:56:27 AM 41.5781 -74.5603 182° South 272 313 7,000 -450 Descending Boston Center
Mon 06:57:25 AM 41.5069 -74.5744 188° South 272 313 7,000  Level Boston Center
Mon 06:59:13 AM 41.3833 -74.6000 189° South 261 300 7,000  Level New York TRACON
Mon 07:00:13 AM 41.3000 -74.6333 197° South 257 296 7,000 -421 Level New York TRACON
Mon 07:01:07 AM 41.2333 -74.6500 191° South 273 314 6,200 -944 Descending New York TRACON
Mon 07:02:01 AM 41.1833 -74.6000 143° Southeast 282 325 5,300 -667 Descending New York TRACON
Mon 07:02:55 AM 41.1333 -74.5500 143° Southeast 269 310 5,000 -158 Descending New York TRACON
Mon 07:03:55 AM 41.0667 -74.5000 151° Southeast 263 303 5,000  Level New York TRACON
Mon 07:04:55 AM 41.0667 -74.4000 90° East 257 296 5,000  Level New York TRACON
Mon 07:05:49 AM 41.0333 -74.3333 124° Southeast 259 298 5,000  Level New York TRACON
Mon 07:06:49 AM 40.9833 -74.2500 128° Southeast 260 299 5,000 -400 Level New York TRACON
Mon 07:07:49 AM 40.9333 -74.1833 135° Southeast 272 313 4,200 -500 Descending New York TRACON
Mon 07:08:49 AM 40.8833 -74.1167 135° Southeast 239 275 4,000 -550 Descending New York TRACON
Mon 07:09:49 AM 40.8333 -74.0833 153° Southeast 207 238 3,100 -1,050 Descending New York TRACON
Mon 07:10:49 AM 40.7833 -74.1000 194° South 183 211 1,900 -1,000 Descending New York TRACON
Mon 07:11:49 AM 40.7500 -74.1333 217° Southwest 169 194 1,100 -789 Descending New York TRACON
Mon 07:12:43 AM 40.7167 -74.1500 201° Southwest 132 152 400 -778 Descending New York TRACON

Login

Don't have an account? Register now (free) for customized features, flight alerts, and more!